Time;durP1;ratioP1;P1;durP2;ratioP2;P2;SDS_P1;SDS_P2;PMS_P1;PMS_P2;Temp;Humidity;BMP_temperature;BMP_pressure;BME280_temperature;BME280_humidity;BME280_pressure;Samples;Min_cycle;Max_cycle;Signal;HPM_P1;HPM_P2
2022/04/18 00:01:44;;;;;;;;;;;;;;;6.50;81.46;94496.28;5035003;28;20008;-81
2022/04/18 00:04:10;;;;;;;;;;;;;;;6.54;82.17;94489.06;5034833;28;20020;-81
2022/04/18 00:06:37;;;;;;;;;;;;;;;6.58;79.74;94497.47;5034695;28;20384;-81
2022/04/18 00:09:03;;;;;;;;;;;;;;;6.58;78.45;94492.25;5034733;28;19932;-82
2022/04/18 00:11:30;;;;;;;;;;;;;;;6.66;79.28;94488.16;5034955;28;19926;-81
2022/04/18 00:13:57;;;;;;;;;;;;;;;6.68;79.23;94490.66;5034727;28;20395;-81
2022/04/18 00:16:23;;;;;;;;;;;;;;;6.63;80.46;94487.53;5034631;28;19932;-81
2022/04/18 00:18:51;;;;;;;;;;;;;;;6.64;81.05;94489.19;5015244;28;19926;-81
2022/04/18 00:21:18;;;;;;;;;;;;;;;6.56;82.09;94481.97;5034116;28;19925;-81
2022/04/18 00:23:45;;;;;;;;;;;;;;;6.44;82.88;94482.91;5015881;28;19931;-80
2022/04/18 00:26:11;;;;;;;;;;;;;;;6.34;83.43;94476.69;5034542;28;19925;-81
2022/04/18 00:28:38;;;;;;;;;;;;;;;6.34;85.10;94474.91;4999590;28;19929;-81
2022/04/18 00:31:05;;;;;;;;;;;;;;;6.31;85.06;94466.50;5034166;28;19925;-81
2022/04/18 00:33:31;;;;;;;;;;;;;;;6.35;85.49;94468.75;5034240;28;19932;-81
2022/04/18 00:35:59;;;;;;;;;;;;;;;6.43;84.64;94476.03;5034128;28;20012;-81
2022/04/18 00:38:26;;;;;;;;;;;;;;;6.47;84.70;94467.03;5034209;28;19925;-81
2022/04/18 00:40:53;;;;;;;;;;;;;;;6.53;84.27;94461.34;5034171;28;19932;-81
2022/04/18 00:43:19;;;;;;;;;;;;;;;6.63;84.07;94471.88;5033970;28;20388;-81
2022/04/18 00:45:46;;;;;;;;;;;;;;;6.72;83.78;94466.00;5015675;28;19925;-81
2022/04/18 00:48:12;;;;;;;;;;;;;;;6.76;84.01;94468.25;5033897;28;19932;-81
2022/04/18 00:50:40;;;;;;;;;;;;;;;6.79;83.72;94468.00;5033909;28;19925;-81
2022/04/18 00:53:08;;;;;;;;;;;;;;;6.79;83.22;94472.38;4998786;28;19925;-81
2022/04/18 00:55:36;;;;;;;;;;;;;;;6.86;83.12;94468.34;5031821;28;19932;-81
2022/04/18 00:58:03;;;;;;;;;;;;;;;6.84;82.72;94472.88;5034027;28;19925;-81
2022/04/18 01:00:29;;;;;;;;;;;;;;;6.86;82.36;94462.31;5033747;28;19925;-81
2022/04/18 01:02:56;;;;;;;;;;;;;;;6.89;82.42;94462.06;4998939;28;19925;-80
2022/04/18 01:05:22;;;;;;;;;;;;;;;6.92;82.34;94467.88;5034336;28;20292;-81
2022/04/18 01:07:49;;;;;;;;;;;;;;;6.93;82.30;94463.50;5033727;28;19925;-80
2022/04/18 01:10:17;;;;;;;;;;;;;;;6.94;83.45;94459.94;5033941;28;19926;-81
2022/04/18 01:12:44;;;;;;;;;;;;;;;6.92;82.69;94462.66;5033460;28;19931;-80
2022/04/18 01:15:10;;;;;;;;;;;;;;;6.99;82.16;94460.44;5033302;28;19925;-81
2022/04/18 01:17:37;;;;;;;;;;;;;;;7.04;82.10;94458.28;5033539;28;19933;-81
2022/04/18 01:20:04;;;;;;;;;;;;;;;7.09;80.92;94456.97;5033412;28;19925;-81
2022/04/18 01:22:34;;;;;;;;;;;;;;;7.15;81.20;94460.88;5033121;28;19935;-81
2022/04/18 01:30:29;;;;;;;;;;;;;;;7.08;78.81;94457.09;5032630;28;20059;-81
2022/04/18 01:32:55;;;;;;;;;;;;;;;7.02;79.51;94449.75;5033020;28;19925;-80
2022/04/18 01:35:22;;;;;;;;;;;;;;;7.07;78.37;94452.84;5033411;28;19932;-81
2022/04/18 01:37:50;;;;;;;;;;;;;;;7.01;78.96;94440.28;5032901;28;20016;-81
2022/04/18 01:40:16;;;;;;;;;;;;;;;6.86;77.09;94444.06;5033209;28;19925;-81
2022/04/18 01:42:43;;;;;;;;;;;;;;;6.86;78.11;94437.06;5033152;28;19925;-81
2022/04/18 01:45:10;;;;;;;;;;;;;;;6.85;77.32;94435.41;5032881;28;19931;-81
2022/04/18 01:47:37;;;;;;;;;;;;;;;6.76;77.36;94430.91;5033098;28;19925;-81
2022/04/18 06:24:12;;;;;;;;;;;;;;;6.38;73.95;94421.66;4868941;29;20491;-80
2022/04/18 06:26:39;;;;;;;;;;;;;;;6.51;72.42;94431.97;4893436;29;19935;-82
2022/04/18 06:29:05;;;;;;;;;;;;;;;6.58;72.85;94427.09;4882831;29;19928;-81
2022/04/18 06:31:32;;;;;;;;;;;;;;;6.78;72.84;94429.84;4878592;29;19934;-80
2022/04/18 06:33:58;;;;;;;;;;;;;;;6.93;73.82;94427.81;4888531;29;19928;-80
2022/04/18 06:36:25;;;;;;;;;;;;;;;7.04;72.77;94440.03;4898169;29;20302;-80
2022/04/18 06:38:52;;;;;;;;;;;;;;;6.99;69.53;94436.97;4898546;29;19934;-80
2022/04/18 06:41:19;;;;;;;;;;;;;;;6.93;71.04;94442.63;4897243;29;19927;-80
2022/04/18 06:43:46;;;;;;;;;;;;;;;6.87;70.75;94443.09;4895899;29;19934;-80
2022/04/18 06:46:13;;;;;;;;;;;;;;;6.81;71.51;94437.41;4898066;29;19927;-81
2022/04/18 06:48:39;;;;;;;;;;;;;;;6.88;73.98;94434.34;4898658;29;19928;-80
2022/04/18 06:51:06;;;;;;;;;;;;;;;6.77;72.84;94436.00;4899027;29;19928;-81
2022/04/18 06:53:33;;;;;;;;;;;;;;;6.49;73.07;94439.06;4898663;29;19935;-81
2022/04/18 06:58:50;;;;;;;;;;;;;;;6.32;75.23;94437.72;4877655;29;19935;-81
2022/04/18 07:01:17;;;;;;;;;;;;;;;6.22;75.57;94436.75;4877548;29;19928;-81
2022/04/18 07:03:43;;;;;;;;;;;;;;;6.23;75.57;94441.03;4877712;29;20402;-80
2022/04/18 07:06:10;;;;;;;;;;;;;;;6.15;77.31;94440.78;4877524;29;19935;-81
2022/04/18 07:11:40;;;;;;;;;;;;;;;5.76;79.12;94444.50;4875768;29;19931;-81
2022/04/18 07:14:08;;;;;;;;;;;;;;;5.78;80.40;94433.06;4877535;29;19928;-80
2022/04/18 07:16:35;;;;;;;;;;;;;;;5.88;78.73;94439.25;4877645;29;19928;-81
2022/04/18 07:19:02;;;;;;;;;;;;;;;5.86;78.99;94440.31;4877802;29;20014;-80
2022/04/18 07:21:28;;;;;;;;;;;;;;;5.81;79.04;94435.44;4877378;29;19939;-81
2022/04/18 07:23:55;;;;;;;;;;;;;;;5.85;80.14;94441.25;4877878;29;20294;-81
2022/04/18 07:26:21;;;;;;;;;;;;;;;5.77;79.68;94443.56;4877363;29;19975;-81
2022/04/18 07:28:48;;;;;;;;;;;;;;;5.70;80.37;94431.94;4879894;29;20388;-81
2022/04/18 07:31:16;;;;;;;;;;;;;;;5.65;81.17;94439.25;4880765;29;19935;-80
2022/04/18 07:33:43;;;;;;;;;;;;;;;5.62;80.71;94442.91;4880841;29;19928;-81
2022/04/18 07:36:09;;;;;;;;;;;;;;;5.62;78.09;94444.69;4882262;29;19935;-81
2022/04/18 07:47:27;;;;;;;;;;;;;;;6.57;97.60;94431.47;4882571;29;19927;-81
2022/04/18 07:49:53;;;;;;;;;;;;;;;6.52;77.15;94450.09;4882801;29;19980;-80
2022/04/18 07:52:20;;;;;;;;;;;;;;;6.37;76.73;94461.69;4883109;29;19932;-80
2022/04/18 07:54:47;;;;;;;;;;;;;;;6.11;76.99;94455.81;4882831;29;19935;-80
2022/04/18 07:57:13;;;;;;;;;;;;;;;5.79;80.20;94460.75;4881797;29;19928;-80
2022/04/18 07:59:40;;;;;;;;;;;;;;;5.81;80.40;94458.03;4880976;29;19927;-80
2022/04/18 08:02:08;;;;;;;;;;;;;;;5.77;80.44;94457.41;4881377;29;19928;-80
2022/04/18 08:04:39;;;;;;;;;;;;;;;5.67;80.76;94450.38;4881177;29;20022;-80
2022/04/18 08:07:05;;;;;;;;;;;;;;;5.77;82.50;94440.97;4896038;29;20059;-80
2022/04/18 08:09:32;;;;;;;;;;;;;;;5.68;80.75;94454.66;4882052;29;19928;-80
2022/04/18 08:11:59;;;;;;;;;;;;;;;5.58;81.21;94450.13;4899898;29;19932;-80
2022/04/18 08:14:25;;;;;;;;;;;;;;;5.65;81.15;94453.09;4899300;29;19928;-80
2022/04/18 08:16:52;;;;;;;;;;;;;;;5.64;80.87;94451.44;4898919;29;19927;-79
2022/04/18 08:19:18;;;;;;;;;;;;;;;5.66;79.30;94453.94;4900321;29;19932;-80
2022/04/18 08:21:46;;;;;;;;;;;;;;;5.67;79.80;94451.22;4899852;29;19934;-80
2022/04/18 08:24:13;;;;;;;;;;;;;;;5.57;80.48;94447.63;4896632;29;19936;-80
2022/04/18 08:26:40;;;;;;;;;;;;;;;5.66;80.96;94453.94;4898932;29;19935;-79
2022/04/18 08:29:06;;;;;;;;;;;;;;;5.70;80.13;94465.78;4899582;29;19927;-80
2022/04/18 08:31:33;;;;;;;;;;;;;;;5.55;82.51;94452.94;4899809;29;19928;-80
2022/04/18 08:34:00;;;;;;;;;;;;;;;5.59;81.80;94456.16;4899666;29;20286;-80
2022/04/18 08:36:27;;;;;;;;;;;;;;;5.55;83.12;94452.13;4898906;29;19943;-80
2022/04/18 08:38:55;;;;;;;;;;;;;;;5.55;81.86;94452.13;4900211;29;19928;-80
2022/04/18 08:41:23;;;;;;;;;;;;;;;5.66;83.02;94453.94;4900631;29;19931;-80
2022/04/18 08:43:50;;;;;;;;;;;;;;;5.80;86.51;94445.97;4901173;29;20311;-80
2022/04/18 08:46:18;;;;;;;;;;;;;;;5.82;82.58;94449.28;4900428;29;19934;-80
2022/04/18 08:54:15;;;;;;;;;;;;;;;5.84;81.79;94463.84;4900865;29;19934;-80
2022/04/18 08:56:42;;;;;;;;;;;;;;;5.84;80.89;94450.00;4899976;29;19935;-80
2022/04/18 08:59:09;;;;;;;;;;;;;;;5.89;80.15;94447.88;4900197;29;20386;-80
2022/04/18 09:01:35;;;;;;;;;;;;;;;5.87;80.30;94452.38;4897542;29;19931;-82
2022/04/18 09:04:02;;;;;;;;;;;;;;;5.87;79.47;94460.19;4899658;29;20367;-80
2022/04/18 09:06:30;;;;;;;;;;;;;;;5.80;79.02;94456.38;4899780;29;20399;-78
2022/04/18 09:08:57;;;;;;;;;;;;;;;5.77;78.47;94451.38;4900344;29;20287;-80
2022/04/18 09:11:29;;;;;;;;;;;;;;;7.43;100.00;94444.69;4900182;29;20327;-82
2022/04/18 09:13:58;;;;;;;;;;;;;;;9.11;99.02;94445.63;4900180;29;19927;-81
2022/04/18 09:16:28;;;;;;;;;;;;;;;8.63;73.28;94451.44;4899550;29;20431;-80
2022/04/18 09:19:05;;;;;;;;;;;;;;;8.46;69.63;94458.09;4899915;29;19928;-80
2022/04/18 09:21:31;;;;;;;;;;;;;;;8.16;69.17;94465.84;4900061;29;20006;-81
2022/04/18 09:23:58;;;;;;;;;;;;;;;8.11;68.95;94453.16;4898485;29;19934;-81
2022/04/18 09:26:25;;;;;;;;;;;;;;;8.05;68.36;94461.47;4898567;29;20013;-80
2022/04/18 09:29:02;;;;;;;;;;;;;;;7.81;69.14;94459.09;4898408;29;19936;-81
2022/04/18 09:31:38;;;;;;;;;;;;;;;7.77;69.54;94450.66;4898459;29;19931;-81
2022/04/18 09:34:05;;;;;;;;;;;;;;;7.52;71.16;94450.13;4898604;29;19927;-81
2022/04/18 09:36:31;;;;;;;;;;;;;;;7.37;71.06;94449.59;4898590;29;19934;-81
2022/04/18 09:38:58;;;;;;;;;;;;;;;7.14;71.71;94451.41;4898089;29;20418;-81
2022/04/18 09:41:26;;;;;;;;;;;;;;;7.04;71.96;94450.47;4898251;29;19934;-81
2022/04/18 09:43:55;;;;;;;;;;;;;;;6.99;72.42;94443.00;4880324;29;19943;-82
2022/04/18 09:46:22;;;;;;;;;;;;;;;7.05;74.10;94449.50;4898213;29;19949;-81
2022/04/18 09:48:49;;;;;;;;;;;;;;;7.08;73.42;94444.88;4897121;29;19928;-81
2022/04/18 09:51:17;;;;;;;;;;;;;;;7.11;71.32;94447.25;4881535;29;19928;-81
2022/04/18 09:53:44;;;;;;;;;;;;;;;7.21;70.54;94452.56;4897862;29;19947;-81
2022/04/18 09:56:14;;;;;;;;;;;;;;;7.31;69.96;94442.25;4898734;29;19975;-80
2022/04/18 09:58:41;;;;;;;;;;;;;;;7.21;70.30;94439.53;4899493;29;19928;-81
2022/04/18 10:01:11;;;;;;;;;;;;;;;7.04;69.18;94445.25;4898793;29;20620;-81
2022/04/18 10:03:38;;;;;;;;;;;;;;;7.03;69.65;94438.38;4899505;29;19951;-81
2022/04/18 10:06:05;;;;;;;;;;;;;;;7.12;69.88;94437.63;4899327;29;19935;-81
2022/04/18 10:08:32;;;;;;;;;;;;;;;7.16;69.88;94428.63;4898865;29;20263;-81
2022/04/18 10:10:59;;;;;;;;;;;;;;;7.14;71.11;94435.75;4897296;29;19927;-81
2022/04/18 10:13:26;;;;;;;;;;;;;;;7.17;70.36;94430.28;4899521;29;20298;-81
2022/04/18 10:15:53;;;;;;;;;;;;;;;7.25;70.31;94429.69;4899356;29;19927;-81
2022/04/18 10:18:21;;;;;;;;;;;;;;;7.37;70.40;94426.09;4899297;29;19931;-82
2022/04/18 10:20:57;;;;;;;;;;;;;;;7.41;70.28;94425.72;4897261;29;20466;-82
2022/04/18 10:23:43;;;;;;;;;;;;;;;7.46;69.65;94425.34;4898644;29;20272;-82
2022/04/18 10:26:30;;;;;;;;;;;;;;;7.47;69.12;94422.63;4899687;29;19935;-82
2022/04/18 10:28:57;;;;;;;;;;;;;;;7.52;70.34;94421.41;4897799;29;20417;-82
2022/04/18 10:31:25;;;;;;;;;;;;;;;7.51;69.42;94423.19;4897759;29;19927;-81
2022/04/18 10:33:54;;;;;;;;;;;;;;;7.58;69.41;94423.56;4897562;29;19934;-82
2022/04/18 10:36:25;;;;;;;;;;;;;;;7.59;68.79;94420.00;4897791;29;19932;-82
2022/04/18 10:38:52;;;;;;;;;;;;;;;7.73;69.37;94420.53;4897756;29;19987;-82
2022/04/18 10:41:32;;;;;;;;;;;;;;;7.80;69.29;94418.22;4897268;29;19934;-82
2022/04/18 10:44:02;;;;;;;;;;;;;;;7.90;68.54;94411.31;4897448;29;20026;-82
2022/04/18 10:46:29;;;;;;;;;;;;;;;8.00;67.30;94414.00;4897388;29;20022;-82
2022/04/18 10:48:57;;;;;;;;;;;;;;;8.10;67.48;94420.16;4897450;29;19978;-82
2022/04/18 10:51:27;;;;;;;;;;;;;;;8.20;66.87;94413.19;4898893;29;19934;-82
2022/04/18 10:54:04;;;;;;;;;;;;;;;8.23;65.42;94412.09;4898591;29;20022;-82
2022/04/18 10:56:45;;;;;;;;;;;;;;;8.28;64.82;94407.31;4898028;29;19939;-82
2022/04/18 10:59:13;;;;;;;;;;;;;;;8.30;65.42;94408.00;4898753;29;19934;-82
2022/04/18 11:01:40;;;;;;;;;;;;;;;8.33;65.56;94406.00;4900604;29;19934;-82
2022/04/18 11:04:10;;;;;;;;;;;;;;;8.41;66.02;94408.00;4902165;29;19927;-82
2022/04/18 11:06:47;;;;;;;;;;;;;;;8.40;65.77;94398.50;4902314;29;19928;-82
2022/04/18 11:09:16;;;;;;;;;;;;;;;8.39;65.92;94394.22;4901849;29;19928;-82
2022/04/18 11:11:44;;;;;;;;;;;;;;;8.24;65.32;94396.28;4902091;29;19927;-81
2022/04/18 11:14:15;;;;;;;;;;;;;;;8.10;65.84;94401.03;4901058;29;19939;-82
2022/04/18 11:16:48;;;;;;;;;;;;;;;7.92;66.29;94392.91;4901331;29;19939;-81
2022/04/18 11:19:19;;;;;;;;;;;;;;;7.80;65.75;94392.13;4901975;29;19935;-82
2022/04/18 11:22:04;;;;;;;;;;;;;;;7.77;66.88;94384.53;4901625;29;19950;-82
2022/04/18 11:24:35;;;;;;;;;;;;;;;7.74;67.86;94390.00;4901983;29;19939;-82
2022/04/18 11:27:02;;;;;;;;;;;;;;;7.83;67.10;94397.13;4901957;29;19928;-82
2022/04/18 11:29:30;;;;;;;;;;;;;;;7.99;64.22;94392.28;4902423;29;19928;-81
2022/04/18 11:41:27;;;;;;;;;;;;;;;8.17;64.83;94383.88;4901393;29;19930;-82
2022/04/18 11:43:57;;;;;;;;;;;;;;;7.99;64.09;94387.03;4902323;29;20259;-82
2022/04/18 11:46:28;;;;;;;;;;;;;;;7.93;63.05;94382.34;4901563;29;19928;-82
2022/04/18 11:48:55;;;;;;;;;;;;;;;7.98;65.54;94381.94;4901193;29;19934;-82
2022/04/18 11:51:36;;;;;;;;;;;;;;;8.10;64.29;94382.72;4901457;29;20393;-82
2022/04/18 11:54:03;;;;;;;;;;;;;;;8.16;64.69;94372.59;4901325;29;20684;-82
2022/04/18 11:56:31;;;;;;;;;;;;;;;8.21;64.61;94377.44;4901228;29;19927;-82
2022/04/18 11:59:03;;;;;;;;;;;;;;;8.05;67.21;94365.63;4901722;29;19935;-81
2022/04/18 12:07:04;;;;;;;;;;;;;;;7.73;67.84;94367.47;4900358;29;20299;-82
2022/04/18 12:09:31;;;;;;;;;;;;;;;7.70;68.85;94370.34;4900947;29;19935;-82
2022/04/18 12:12:02;;;;;;;;;;;;;;;7.60;67.92;94359.81;4899943;29;19931;-82
2022/04/18 12:14:29;;;;;;;;;;;;;;;7.57;66.77;94361.84;4898997;29;19928;-82
2022/04/18 12:17:00;;;;;;;;;;;;;;;7.64;66.76;94353.38;4899742;29;19927;-82
2022/04/18 12:19:28;;;;;;;;;;;;;;;7.76;65.62;94359.38;4899794;29;20386;-82
2022/04/18 12:21:56;;;;;;;;;;;;;;;7.86;65.88;94354.25;4899368;29;19927;-82
2022/04/18 12:24:23;;;;;;;;;;;;;;;8.04;66.61;94353.53;4899834;29;19982;-82
2022/04/18 12:26:50;;;;;;;;;;;;;;;8.16;66.96;94351.69;4899287;29;20192;-82
2022/04/18 12:29:20;;;;;;;;;;;;;;;8.15;64.16;94357.03;4899553;29;19950;-82
2022/04/18 12:31:46;;;;;;;;;;;;;;;8.27;64.54;94353.38;4899422;29;19927;-82
2022/04/18 12:34:17;;;;;;;;;;;;;;;8.40;65.80;94348.00;4890077;29;19928;-82
2022/04/18 12:36:43;;;;;;;;;;;;;;;8.51;64.83;94346.13;4896770;29;19959;-82
2022/04/18 12:39:19;;;;;;;;;;;;;;;8.42;62.94;94346.06;4897560;29;19936;-82
2022/04/18 12:41:46;;;;;;;;;;;;;;;8.44;63.08;94347.59;4868122;29;19927;-82
2022/04/18 12:44:13;;;;;;;;;;;;;;;8.49;63.19;94347.19;4899625;29;19928;-82
2022/04/18 12:46:42;;;;;;;;;;;;;;;8.53;63.20;94341.56;4899991;29;19927;-82
2022/04/18 12:52:11;;;;;;;;;;;;;;;8.50;62.78;94338.41;4900195;29;19926;-82
2022/04/18 12:54:45;;;;;;;;;;;;;;;8.55;61.52;94339.66;4900304;29;19928;-82
2022/04/18 12:57:19;;;;;;;;;;;;;;;8.51;62.54;94340.88;4899700;29;19931;-82
2022/04/18 12:59:46;;;;;;;;;;;;;;;8.32;63.59;94343.38;4881354;29;19951;-82
2022/04/18 13:02:14;;;;;;;;;;;;;;;8.42;64.11;94339.06;4881549;29;19928;-82
2022/04/18 13:04:41;;;;;;;;;;;;;;;8.43;65.08;94332.03;4882217;29;19951;-82
2022/04/18 13:07:08;;;;;;;;;;;;;;;8.43;63.30;94338.09;4886412;29;19927;-82
2022/04/18 13:09:35;;;;;;;;;;;;;;;8.36;62.46;94334.34;4899758;29;20025;-81
2022/04/18 13:12:03;;;;;;;;;;;;;;;8.32;62.53;94343.38;4900186;29;19931;-82
2022/04/18 13:14:29;;;;;;;;;;;;;;;8.25;63.10;94339.63;4899636;29;19934;-82
2022/04/18 13:17:05;;;;;;;;;;;;;;;8.32;64.88;94335.53;4898918;29;19928;-81
2022/04/18 13:19:33;;;;;;;;;;;;;;;8.02;63.30;94339.75;4897712;29;19927;-81
2022/04/18 13:21:59;;;;;;;;;;;;;;;8.05;64.21;94342.13;4899676;29;19928;-82
2022/04/18 13:24:26;;;;;;;;;;;;;;;8.05;63.97;94339.50;4898768;29;19927;-82
2022/04/18 13:26:52;;;;;;;;;;;;;;;8.14;64.09;94343.16;4899205;29;20385;-82
2022/04/18 13:32:40;;;;;;;;;;;;;;;8.17;63.62;94344.66;4899288;29;19947;-81
2022/04/18 13:35:09;;;;;;;;;;;;;;;8.26;64.20;94344.72;4899543;29;19927;-80
2022/04/18 13:37:36;;;;;;;;;;;;;;;8.28;63.94;94336.75;4899748;29;19934;-81
2022/04/18 13:40:03;;;;;;;;;;;;;;;8.43;63.60;94339.88;4900072;29;20014;-80
2022/04/18 13:42:30;;;;;;;;;;;;;;;8.48;62.98;94340.31;4899446;29;19935;-78
2022/04/18 13:44:56;;;;;;;;;;;;;;;8.35;65.59;94336.13;4898696;29;19927;-82
2022/04/18 13:47:23;;;;;;;;;;;;;;;8.34;66.70;94336.25;4899066;29;19927;-82
2022/04/18 13:49:49;;;;;;;;;;;;;;;8.14;67.23;94332.69;4900115;29;19928;-82
2022/04/18 13:52:17;;;;;;;;;;;;;;;7.96;67.61;94335.06;4899721;29;19927;-84
2022/04/18 13:54:44;;;;;;;;;;;;;;;7.99;67.97;94328.75;4899596;29;19927;-85
2022/04/18 13:57:12;;;;;;;;;;;;;;;7.85;66.82;94332.50;4912962;29;19927;-83
2022/04/18 13:59:38;;;;;;;;;;;;;;;7.80;68.36;94332.03;4899479;29;19934;-86
2022/04/18 14:02:05;;;;;;;;;;;;;;;7.83;68.53;94325.75;4899562;29;19927;-82
2022/04/18 14:04:32;;;;;;;;;;;;;;;7.76;68.36;94335.88;4898949;29;20418;-83
2022/04/18 14:06:59;;;;;;;;;;;;;;;7.65;67.77;94330.72;4897248;29;19931;-84
2022/04/18 14:09:28;;;;;;;;;;;;;;;7.65;68.09;94328.09;4899029;29;19997;-82
2022/04/18 14:11:54;;;;;;;;;;;;;;;7.65;67.74;94330.72;4897028;29;20434;-83
2022/04/18 14:22:33;;;;;;;;;;;;;;;7.74;67.57;94333.38;4898646;29;19987;-89
2022/04/18 14:28:17;;;;;;;;;;;;;;;7.73;67.55;94330.91;4896856;29;20133;-82
2022/04/18 14:30:44;;;;;;;;;;;;;;;7.70;66.99;94326.75;4898748;29;19928;-81
2022/04/18 14:33:10;;;;;;;;;;;;;;;7.71;67.14;94324.97;4898797;29;19927;-82
2022/04/18 14:35:37;;;;;;;;;;;;;;;7.71;67.87;94330.19;4898618;29;19927;-82
2022/04/18 14:38:04;;;;;;;;;;;;;;;7.67;66.84;94320.97;4901824;29;20288;-84
2022/04/18 14:40:30;;;;;;;;;;;;;;;7.66;65.80;94321.94;4902827;29;19927;-83
2022/04/18 14:42:57;;;;;;;;;;;;;;;7.70;66.28;94326.75;4902532;29;19943;-82
2022/04/18 14:45:25;;;;;;;;;;;;;;;7.73;65.97;94323.91;4902952;29;19927;-83
2022/04/18 14:47:52;;;;;;;;;;;;;;;7.72;66.96;94329.25;4902398;29;19934;-82
2022/04/18 14:50:18;;;;;;;;;;;;;;;7.64;66.42;94324.66;4902265;29;19928;-83
2022/04/18 14:52:45;;;;;;;;;;;;;;;7.64;66.95;94334.28;4902393;29;19935;-82
2022/04/18 14:55:11;;;;;;;;;;;;;;;7.55;68.61;94327.22;4884989;29;19927;-82
2022/04/18 14:57:38;;;;;;;;;;;;;;;7.57;68.18;94327.91;4902547;29;19927;-82
2022/04/18 15:00:05;;;;;;;;;;;;;;;7.58;68.61;94329.56;4902599;29;19935;-83
2022/04/18 15:02:33;;;;;;;;;;;;;;;7.47;69.22;94323.44;4901980;29;19939;-82
2022/04/18 15:05:00;;;;;;;;;;;;;;;7.43;69.27;94324.63;4902169;29;19927;-83
2022/04/18 15:07:27;;;;;;;;;;;;;;;7.40;69.76;94327.50;4902921;29;19928;-81
2022/04/18 15:09:54;;;;;;;;;;;;;;;7.36;70.13;94328.69;4902247;29;20362;-83
2022/04/18 15:12:20;;;;;;;;;;;;;;;7.37;70.11;94327.75;4901838;29;19931;-85
2022/04/18 15:14:47;;;;;;;;;;;;;;;7.43;70.12;94322.03;4902063;29;19939;-84
2022/04/18 15:17:13;;;;;;;;;;;;;;;7.45;68.27;94325.34;4900197;29;19928;-82
2022/04/18 15:19:41;;;;;;;;;;;;;;;7.49;69.74;94323.28;4901995;29;19927;-82
2022/04/18 15:22:08;;;;;;;;;;;;;;;7.44;69.50;94318.47;4900189;29;19986;-83
2022/04/18 15:24:37;;;;;;;;;;;;;;;7.49;68.97;94328.50;4901232;29;19927;-82
2022/04/18 15:27:04;;;;;;;;;;;;;;;7.55;68.50;94332.44;4901666;29;19949;-88
2022/04/18 15:29:32;;;;;;;;;;;;;;;7.56;68.58;94332.31;4901695;29;19927;-84
2022/04/18 15:32:07;;;;;;;;;;;;;;;7.63;67.36;94338.69;4901793;29;20469;-84
2022/04/18 15:34:34;;;;;;;;;;;;;;;7.66;67.30;94342.81;4901842;29;20006;-84
2022/04/18 15:37:06;;;;;;;;;;;;;;;7.64;65.70;94337.72;4901869;29;19927;-84
2022/04/18 15:39:33;;;;;;;;;;;;;;;7.69;66.23;94335.56;4901350;29;19932;-83
2022/04/18 15:42:00;;;;;;;;;;;;;;;7.75;67.17;94339.44;4901261;29;19983;-83
2022/04/18 15:44:28;;;;;;;;;;;;;;;7.66;69.02;94337.59;4901240;29;19928;-83
2022/04/18 15:46:56;;;;;;;;;;;;;;;7.64;67.13;94335.09;4899591;29;20030;-83
2022/04/18 15:49:23;;;;;;;;;;;;;;;7.56;67.91;94337.53;4900398;29;19928;-83
2022/04/18 15:51:52;;;;;;;;;;;;;;;7.47;66.76;94341.69;4901146;29;19927;-83
2022/04/18 15:54:20;;;;;;;;;;;;;;;7.61;66.98;94335.38;4884173;29;19963;-83
2022/04/18 15:56:46;;;;;;;;;;;;;;;7.71;67.25;94327.59;4901253;29;19927;-83
2022/04/18 15:59:13;;;;;;;;;;;;;;;7.78;67.55;94341.78;4901456;29;19928;-83
2022/04/18 16:01:39;;;;;;;;;;;;;;;7.82;67.96;94338.00;4900648;29;20413;-84
2022/04/18 16:04:06;;;;;;;;;;;;;;;7.78;66.97;94341.78;4900814;29;19928;-83
2022/04/18 16:06:33;;;;;;;;;;;;;;;7.64;68.00;94342.13;4900972;29;19928;-85
2022/04/18 16:08:59;;;;;;;;;;;;;;;7.51;69.58;94339.66;4900547;29;19927;-84
2022/04/18 16:11:27;;;;;;;;;;;;;;;7.52;69.61;94340.50;4900594;29;19934;-85
2022/04/18 16:13:54;;;;;;;;;;;;;;;7.45;70.54;94343.59;4901036;29;19927;-86
2022/04/18 16:16:25;;;;;;;;;;;;;;;7.52;70.69;94332.66;4901277;29;19928;-83
2022/04/18 16:18:52;;;;;;;;;;;;;;;7.58;72.75;94337.41;4900798;29;19931;-83
2022/04/18 16:21:19;;;;;;;;;;;;;;;7.56;72.00;94347.16;4901195;29;19935;-85
2022/04/18 16:23:45;;;;;;;;;;;;;;;7.64;72.30;94339.50;4900967;29;19928;-87
2022/04/18 16:26:13;;;;;;;;;;;;;;;7.69;72.37;94353.00;4900749;29;19931;-85
2022/04/18 16:28:41;;;;;;;;;;;;;;;7.41;72.80;94355.25;4901360;29;19934;-85
2022/04/18 16:52:28;;;;;;;;;;;;;;;6.60;79.86;94378.28;4899636;29;19930;-84
2022/04/18 16:54:57;;;;;;;;;;;;;;;6.62;79.53;94373.78;4899970;29;19934;-85
2022/04/18 16:57:25;;;;;;;;;;;;;;;6.74;79.17;94378.06;4900496;29;19931;-87
2022/04/18 16:59:51;;;;;;;;;;;;;;;6.67;80.43;94382.94;4898825;29;19931;-84
2022/04/18 17:02:18;;;;;;;;;;;;;;;6.75;79.96;94377.09;4901034;29;19983;-85
2022/04/18 17:04:45;;;;;;;;;;;;;;;6.87;79.66;94381.34;4899921;29;19928;-84
2022/04/18 17:07:12;;;;;;;;;;;;;;;6.97;78.98;94381.47;4899997;29;19928;-85
2022/04/18 17:09:40;;;;;;;;;;;;;;;6.94;78.87;94385.16;4881181;29;20380;-84
2022/04/18 17:12:07;;;;;;;;;;;;;;;6.97;79.95;94382.31;4881109;29;20022;-83
2022/04/18 17:14:34;;;;;;;;;;;;;;;6.97;80.32;94382.31;4881902;29;19978;-85
2022/04/18 17:17:01;;;;;;;;;;;;;;;6.98;80.05;94380.53;4881058;29;19928;-86
2022/04/18 17:22:33;;;;;;;;;;;;;;;6.97;80.19;94387.53;4880944;29;19950;-83
2022/04/18 17:25:01;;;;;;;;;;;;;;;6.92;80.56;94389.63;4881631;29;19928;-84
2022/04/18 17:27:27;;;;;;;;;;;;;;;6.94;80.79;94389.50;4881027;29;19928;-86
2022/04/18 17:29:54;;;;;;;;;;;;;;;6.95;81.50;94392.03;4880801;29;20383;-86
2022/04/18 17:32:20;;;;;;;;;;;;;;;6.86;82.63;94384.06;4881111;29;19928;-82
2022/04/18 17:34:47;;;;;;;;;;;;;;;6.79;84.22;94388.94;4880880;29;19935;-84
2022/04/18 17:37:14;;;;;;;;;;;;;;;6.38;84.80;94392.16;4881001;29;19935;-83
2022/04/18 17:39:41;;;;;;;;;;;;;;;6.52;86.33;94397.13;4881153;29;19928;-84
2022/04/18 17:42:09;;;;;;;;;;;;;;;6.32;87.14;94388.22;4848287;29;19950;-85
2022/04/18 17:44:36;;;;;;;;;;;;;;;6.06;87.74;94398.00;4880657;29;19985;-87
2022/04/18 17:47:03;;;;;;;;;;;;;;;6.27;87.52;94394.72;4881310;29;19981;-88
2022/04/18 17:49:29;;;;;;;;;;;;;;;6.11;89.67;94395.91;4880667;29;19928;-85
2022/04/18 17:51:56;;;;;;;;;;;;;;;6.22;89.79;94392.47;4880711;29;20312;-85
2022/04/18 17:57:06;;;;;;;;;;;;;;;5.90;90.66;94400.09;4880729;29;19934;-84
2022/04/18 17:59:35;;;;;;;;;;;;;;;5.94;90.23;94398.94;4880605;29;19936;-81
2022/04/18 18:02:01;;;;;;;;;;;;;;;5.89;90.08;94404.47;4878493;29;19928;-80
2022/04/18 18:04:28;;;;;;;;;;;;;;;5.97;90.59;94409.13;4880428;29;19927;-83
2022/04/18 18:06:56;;;;;;;;;;;;;;;5.85;90.00;94407.41;4880415;29;19935;-87
2022/04/18 18:09:22;;;;;;;;;;;;;;;5.79;90.74;94410.47;4878676;29;20291;-80
2022/04/18 18:11:49;;;;;;;;;;;;;;;5.69;92.22;94412.91;4879867;29;19928;-83
2022/04/18 18:14:15;;;;;;;;;;;;;;;5.88;91.41;94422.78;4880115;29;19927;-82
2022/04/18 18:16:43;;;;;;;;;;;;;;;5.96;91.05;94425.69;4880016;29;19928;-83
2022/04/18 18:19:10;;;;;;;;;;;;;;;6.13;90.04;94425.28;4880379;29;19927;-84
2022/04/18 18:21:37;;;;;;;;;;;;;;;6.21;89.34;94420.31;4880580;29;19928;-83
2022/04/18 18:24:04;;;;;;;;;;;;;;;6.30;89.09;94428.38;4880227;29;19935;-80
2022/04/18 18:26:31;;;;;;;;;;;;;;;6.30;88.52;94433.56;4880015;29;20415;-83
2022/04/18 18:28:57;;;;;;;;;;;;;;;6.41;88.63;94436.22;4880706;29;19928;-81
2022/04/18 18:31:24;;;;;;;;;;;;;;;6.49;88.50;94436.47;4879833;29;19928;-82
2022/04/18 18:46:03;;;;;;;;;;;;;;;6.47;86.24;94440.97;4879258;29;19931;-81
2022/04/18 18:48:35;;;;;;;;;;;;;;;6.33;87.35;94434.16;4880153;29;20026;-82
2022/04/18 18:53:46;;;;;;;;;;;;;;;6.43;86.72;94434.31;4879915;29;19935;-83
2022/04/18 18:56:13;;;;;;;;;;;;;;;6.49;86.47;94436.47;4879756;29;19939;-83
2022/04/18 18:58:39;;;;;;;;;;;;;;;6.49;87.02;94436.47;4879672;29;20376;-84
2022/04/18 19:01:07;;;;;;;;;;;;;;;6.55;86.59;94432.56;4879858;29;19927;-85
2022/04/18 19:03:34;;;;;;;;;;;;;;;6.60;87.56;94435.63;4879749;29;20026;-84
2022/04/18 19:06:01;;;;;;;;;;;;;;;6.62;87.18;94439.78;4879823;29;19928;-82
2022/04/18 19:08:27;;;;;;;;;;;;;;;6.66;87.66;94435.19;4879625;29;19932;-82
2022/04/18 19:10:54;;;;;;;;;;;;;;;6.67;87.63;94447.28;4879954;29;19928;-82
2022/04/18 19:13:21;;;;;;;;;;;;;;;6.72;87.27;94440.75;4880026;29;20007;-84
2022/04/18 19:15:47;;;;;;;;;;;;;;;6.74;87.84;94444.06;4862826;29;19928;-82